sensor_id;sensor_type;location;lat;lon;timestamp;P1;durP1;ratioP1;P2;durP2;ratioP2
69912;SDS011;57198;52.082;5.108;2022-07-31T00:00:25;3.67;;;2.20;;
69912;SDS011;57198;52.082;5.108;2022-07-31T00:02:52;5.45;;;2.40;;
69912;SDS011;57198;52.082;5.108;2022-07-31T00:05:20;4.97;;;2.90;;
69912;SDS011;57198;52.082;5.108;2022-07-31T00:07:47;7.53;;;2.92;;
69912;SDS011;57198;52.082;5.108;2022-07-31T00:10:15;3.53;;;2.50;;
69912;SDS011;57198;52.082;5.108;2022-07-31T00:12:42;5.30;;;2.90;;
69912;SDS011;57198;52.082;5.108;2022-07-31T00:15:09;4.57;;;3.20;;
69912;SDS011;57198;52.082;5.108;2022-07-31T00:17:38;5.47;;;3.20;;
69912;SDS011;57198;52.082;5.108;2022-07-31T00:20:06;4.25;;;3.85;;
69912;SDS011;57198;52.082;5.108;2022-07-31T00:22:33;6.22;;;3.88;;
69912;SDS011;57198;52.082;5.108;2022-07-31T00:25:01;4.97;;;4.47;;
69912;SDS011;57198;52.082;5.108;2022-07-31T00:27:28;6.57;;;3.67;;
69912;SDS011;57198;52.082;5.108;2022-07-31T00:29:55;5.20;;;4.30;;
69912;SDS011;57198;52.082;5.108;2022-07-31T00:32:22;5.53;;;4.63;;
69912;SDS011;57198;52.082;5.108;2022-07-31T00:34:50;5.13;;;4.00;;
69912;SDS011;57198;52.082;5.108;2022-07-31T00:37:17;6.90;;;4.97;;
69912;SDS011;57198;52.082;5.108;2022-07-31T00:39:44;7.40;;;4.70;;
69912;SDS011;57198;52.082;5.108;2022-07-31T00:42:15;6.80;;;4.57;;
69912;SDS011;57198;52.082;5.108;2022-07-31T00:44:43;5.32;;;4.68;;
69912;SDS011;57198;52.082;5.108;2022-07-31T00:47:14;8.45;;;4.75;;
69912;SDS011;57198;52.082;5.108;2022-07-31T00:49:41;7.07;;;5.45;;
69912;SDS011;57198;52.082;5.108;2022-07-31T00:52:09;7.18;;;5.07;;
69912;SDS011;57198;52.082;5.108;2022-07-31T00:54:36;8.27;;;5.13;;
69912;SDS011;57198;52.082;5.108;2022-07-31T00:57:04;7.65;;;5.32;;
69912;SDS011;57198;52.082;5.108;2022-07-31T00:59:32;9.98;;;5.22;;
69912;SDS011;57198;52.082;5.108;2022-07-31T01:01:59;7.68;;;5.32;;
69912;SDS011;57198;52.082;5.108;2022-07-31T01:04:27;6.45;;;5.53;;
69912;SDS011;57198;52.082;5.108;2022-07-31T01:06:56;7.77;;;6.30;;
69912;SDS011;57198;52.082;5.108;2022-07-31T01:09:27;8.13;;;5.75;;
69912;SDS011;57198;52.082;5.108;2022-07-31T01:14:42;10.13;;;5.97;;
69912;SDS011;57198;52.082;5.108;2022-07-31T01:17:12;8.85;;;5.70;;
69912;SDS011;57198;52.082;5.108;2022-07-31T01:19:41;9.07;;;5.90;;
69912;SDS011;57198;52.082;5.108;2022-07-31T01:25:02;9.25;;;5.50;;
69912;SDS011;57198;52.082;5.108;2022-07-31T01:30:16;6.80;;;4.97;;
69912;SDS011;57198;52.082;5.108;2022-07-31T01:32:46;6.53;;;5.60;;
69912;SDS011;57198;52.082;5.108;2022-07-31T01:35:37;7.30;;;4.82;;
69912;SDS011;57198;52.082;5.108;2022-07-31T01:40:33;6.45;;;4.85;;
69912;SDS011;57198;52.082;5.108;2022-07-31T01:43:03;6.78;;;4.40;;
69912;SDS011;57198;52.082;5.108;2022-07-31T01:45:31;5.97;;;4.53;;
69912;SDS011;57198;52.082;5.108;2022-07-31T01:47:59;5.85;;;4.53;;
69912;SDS011;57198;52.082;5.108;2022-07-31T01:50:32;6.50;;;4.65;;
69912;SDS011;57198;52.082;5.108;2022-07-31T01:53:11;6.90;;;4.75;;
69912;SDS011;57198;52.082;5.108;2022-07-31T01:55:39;6.43;;;4.85;;
69912;SDS011;57198;52.082;5.108;2022-07-31T01:58:31;7.13;;;5.13;;
69912;SDS011;57198;52.082;5.108;2022-07-31T02:01:05;6.78;;;4.78;;
69912;SDS011;57198;52.082;5.108;2022-07-31T02:03:36;6.72;;;4.68;;
69912;SDS011;57198;52.082;5.108;2022-07-31T02:06:12;5.63;;;4.40;;
69912;SDS011;57198;52.082;5.108;2022-07-31T02:08:41;8.32;;;5.30;;
69912;SDS011;57198;52.082;5.108;2022-07-31T02:11:11;6.90;;;4.47;;
69912;SDS011;57198;52.082;5.108;2022-07-31T02:13:39;6.88;;;4.70;;
69912;SDS011;57198;52.082;5.108;2022-07-31T02:16:07;6.40;;;4.55;;
69912;SDS011;57198;52.082;5.108;2022-07-31T02:18:34;5.38;;;4.65;;
69912;SDS011;57198;52.082;5.108;2022-07-31T02:21:12;9.00;;;5.38;;
69912;SDS011;57198;52.082;5.108;2022-07-31T02:23:40;7.20;;;5.50;;
69912;SDS011;57198;52.082;5.108;2022-07-31T02:26:07;9.23;;;5.47;;
69912;SDS011;57198;52.082;5.108;2022-07-31T02:28:36;7.82;;;4.85;;
69912;SDS011;57198;52.082;5.108;2022-07-31T02:31:05;10.10;;;5.53;;
69912;SDS011;57198;52.082;5.108;2022-07-31T02:33:35;11.48;;;5.40;;
69912;SDS011;57198;52.082;5.108;2022-07-31T02:36:03;11.40;;;5.90;;
69912;SDS011;57198;52.082;5.108;2022-07-31T02:38:31;10.68;;;5.70;;
69912;SDS011;57198;52.082;5.108;2022-07-31T02:41:00;10.02;;;5.35;;
69912;SDS011;57198;52.082;5.108;2022-07-31T02:43:30;11.35;;;5.78;;
69912;SDS011;57198;52.082;5.108;2022-07-31T02:46:03;9.80;;;5.43;;
69912;SDS011;57198;52.082;5.108;2022-07-31T02:48:32;7.93;;;5.63;;
69912;SDS011;57198;52.082;5.108;2022-07-31T02:51:03;10.68;;;5.40;;
69912;SDS011;57198;52.082;5.108;2022-07-31T02:53:30;11.90;;;5.40;;
69912;SDS011;57198;52.082;5.108;2022-07-31T02:56:00;7.28;;;5.15;;
69912;SDS011;57198;52.082;5.108;2022-07-31T02:58:31;9.27;;;5.15;;
69912;SDS011;57198;52.082;5.108;2022-07-31T03:01:00;9.70;;;5.60;;
69912;SDS011;57198;52.082;5.108;2022-07-31T03:03:30;9.45;;;5.30;;
69912;SDS011;57198;52.082;5.108;2022-07-31T03:05:57;7.40;;;4.70;;
69912;SDS011;57198;52.082;5.108;2022-07-31T03:08:25;9.38;;;4.72;;
69912;SDS011;57198;52.082;5.108;2022-07-31T03:10:56;9.93;;;5.68;;
69912;SDS011;57198;52.082;5.108;2022-07-31T03:13:25;9.83;;;5.20;;
69912;SDS011;57198;52.082;5.108;2022-07-31T03:15:53;8.88;;;4.88;;
69912;SDS011;57198;52.082;5.108;2022-07-31T03:18:21;6.85;;;4.93;;
69912;SDS011;57198;52.082;5.108;2022-07-31T03:20:49;9.07;;;5.40;;
69912;SDS011;57198;52.082;5.108;2022-07-31T03:23:19;6.78;;;5.15;;
69912;SDS011;57198;52.082;5.108;2022-07-31T03:25:55;10.60;;;5.40;;
69912;SDS011;57198;52.082;5.108;2022-07-31T03:28:23;8.98;;;5.95;;
69912;SDS011;57198;52.082;5.108;2022-07-31T03:30:51;7.13;;;4.70;;
69912;SDS011;57198;52.082;5.108;2022-07-31T03:33:23;9.63;;;5.10;;
69912;SDS011;57198;52.082;5.108;2022-07-31T03:35:51;11.45;;;6.03;;
69912;SDS011;57198;52.082;5.108;2022-07-31T03:38:18;8.80;;;5.60;;
69912;SDS011;57198;52.082;5.108;2022-07-31T03:41:07;10.40;;;5.80;;
69912;SDS011;57198;52.082;5.108;2022-07-31T03:43:35;10.32;;;5.78;;
69912;SDS011;57198;52.082;5.108;2022-07-31T03:46:15;8.00;;;4.85;;
69912;SDS011;57198;52.082;5.108;2022-07-31T03:48:43;9.10;;;5.43;;
69912;SDS011;57198;52.082;5.108;2022-07-31T03:51:11;8.00;;;5.40;;
69912;SDS011;57198;52.082;5.108;2022-07-31T03:53:38;7.18;;;5.68;;
69912;SDS011;57198;52.082;5.108;2022-07-31T03:56:07;9.77;;;5.90;;
69912;SDS011;57198;52.082;5.108;2022-07-31T03:58:35;7.40;;;5.63;;
69912;SDS011;57198;52.082;5.108;2022-07-31T04:01:04;9.65;;;5.60;;
69912;SDS011;57198;52.082;5.108;2022-07-31T04:03:37;6.63;;;4.80;;
69912;SDS011;57198;52.082;5.108;2022-07-31T04:06:29;8.13;;;5.25;;
69912;SDS011;57198;52.082;5.108;2022-07-31T04:08:56;6.55;;;4.70;;
69912;SDS011;57198;52.082;5.108;2022-07-31T04:11:40;8.98;;;5.82;;
69912;SDS011;57198;52.082;5.108;2022-07-31T04:14:08;6.93;;;5.75;;
69912;SDS011;57198;52.082;5.108;2022-07-31T04:16:36;10.33;;;5.97;;
69912;SDS011;57198;52.082;5.108;2022-07-31T04:19:03;13.15;;;6.05;;
69912;SDS011;57198;52.082;5.108;2022-07-31T04:21:30;9.48;;;5.35;;
69912;SDS011;57198;52.082;5.108;2022-07-31T04:23:58;10.75;;;5.63;;
69912;SDS011;57198;52.082;5.108;2022-07-31T04:26:31;6.68;;;5.10;;
69912;SDS011;57198;52.082;5.108;2022-07-31T04:29:00;7.63;;;5.20;;
69912;SDS011;57198;52.082;5.108;2022-07-31T04:31:28;7.60;;;5.63;;
69912;SDS011;57198;52.082;5.108;2022-07-31T04:33:56;7.75;;;4.97;;
69912;SDS011;57198;52.082;5.108;2022-07-31T04:36:23;10.18;;;5.13;;
69912;SDS011;57198;52.082;5.108;2022-07-31T04:39:00;6.10;;;5.30;;
69912;SDS011;57198;52.082;5.108;2022-07-31T04:41:28;8.57;;;5.90;;
69912;SDS011;57198;52.082;5.108;2022-07-31T04:43:55;8.90;;;5.93;;
69912;SDS011;57198;52.082;5.108;2022-07-31T04:46:34;7.57;;;5.38;;
69912;SDS011;57198;52.082;5.108;2022-07-31T04:49:02;6.85;;;5.82;;
69912;SDS011;57198;52.082;5.108;2022-07-31T04:51:30;9.75;;;6.65;;
69912;SDS011;57198;52.082;5.108;2022-07-31T04:53:57;8.13;;;6.30;;
69912;SDS011;57198;52.082;5.108;2022-07-31T04:56:27;7.32;;;6.53;;
69912;SDS011;57198;52.082;5.108;2022-07-31T04:59:17;8.52;;;6.10;;
69912;SDS011;57198;52.082;5.108;2022-07-31T05:01:46;8.43;;;5.82;;
69912;SDS011;57198;52.082;5.108;2022-07-31T05:04:17;10.48;;;6.85;;
69912;SDS011;57198;52.082;5.108;2022-07-31T05:06:46;8.37;;;6.20;;
69912;SDS011;57198;52.082;5.108;2022-07-31T05:09:15;9.02;;;5.68;;
69912;SDS011;57198;52.082;5.108;2022-07-31T05:11:46;8.60;;;6.00;;
69912;SDS011;57198;52.082;5.108;2022-07-31T05:14:15;8.13;;;6.15;;
69912;SDS011;57198;52.082;5.108;2022-07-31T05:16:42;7.85;;;6.20;;
69912;SDS011;57198;52.082;5.108;2022-07-31T05:19:10;11.07;;;6.53;;
69912;SDS011;57198;52.082;5.108;2022-07-31T05:21:55;9.30;;;6.95;;
69912;SDS011;57198;52.082;5.108;2022-07-31T05:24:31;8.50;;;7.40;;
69912;SDS011;57198;52.082;5.108;2022-07-31T05:27:08;8.15;;;6.82;;
69912;SDS011;57198;52.082;5.108;2022-07-31T05:29:38;9.00;;;6.90;;
69912;SDS011;57198;52.082;5.108;2022-07-31T05:32:06;8.63;;;6.47;;
69912;SDS011;57198;52.082;5.108;2022-07-31T05:34:35;9.57;;;6.40;;
69912;SDS011;57198;52.082;5.108;2022-07-31T05:37:03;9.00;;;6.68;;
69912;SDS011;57198;52.082;5.108;2022-07-31T05:39:33;8.67;;;6.80;;
69912;SDS011;57198;52.082;5.108;2022-07-31T05:42:19;9.27;;;7.28;;
69912;SDS011;57198;52.082;5.108;2022-07-31T05:45:06;9.25;;;7.55;;
69912;SDS011;57198;52.082;5.108;2022-07-31T05:47:34;12.23;;;7.50;;
69912;SDS011;57198;52.082;5.108;2022-07-31T05:50:08;10.52;;;8.00;;
69912;SDS011;57198;52.082;5.108;2022-07-31T05:52:35;13.77;;;8.37;;
69912;SDS011;57198;52.082;5.108;2022-07-31T05:55:20;11.88;;;8.15;;
69912;SDS011;57198;52.082;5.108;2022-07-31T05:58:17;11.60;;;8.60;;
69912;SDS011;57198;52.082;5.108;2022-07-31T06:00:46;10.35;;;8.88;;
69912;SDS011;57198;52.082;5.108;2022-07-31T06:03:13;15.27;;;8.95;;
69912;SDS011;57198;52.082;5.108;2022-07-31T06:06:02;10.57;;;8.37;;
69912;SDS011;57198;52.082;5.108;2022-07-31T06:08:29;13.63;;;8.82;;
69912;SDS011;57198;52.082;5.108;2022-07-31T06:10:57;13.10;;;9.25;;
69912;SDS011;57198;52.082;5.108;2022-07-31T06:13:25;17.05;;;9.75;;
69912;SDS011;57198;52.082;5.108;2022-07-31T06:15:52;16.60;;;9.88;;
69912;SDS011;57198;52.082;5.108;2022-07-31T06:18:21;14.93;;;10.80;;
69912;SDS011;57198;52.082;5.108;2022-07-31T06:20:49;17.17;;;10.02;;
69912;SDS011;57198;52.082;5.108;2022-07-31T06:23:16;15.00;;;10.30;;
69912;SDS011;57198;52.082;5.108;2022-07-31T06:25:48;16.63;;;10.30;;
69912;SDS011;57198;52.082;5.108;2022-07-31T06:28:15;18.38;;;11.00;;
69912;SDS011;57198;52.082;5.108;2022-07-31T06:30:43;19.83;;;11.20;;
69912;SDS011;57198;52.082;5.108;2022-07-31T06:33:11;17.35;;;10.60;;
69912;SDS011;57198;52.082;5.108;2022-07-31T06:35:58;19.67;;;10.80;;
69912;SDS011;57198;52.082;5.108;2022-07-31T06:38:48;17.73;;;11.13;;
69912;SDS011;57198;52.082;5.108;2022-07-31T06:41:25;17.55;;;11.75;;
69912;SDS011;57198;52.082;5.108;2022-07-31T06:44:28;21.50;;;11.87;;
69912;SDS011;57198;52.082;5.108;2022-07-31T06:47:33;19.45;;;11.40;;
69912;SDS011;57198;52.082;5.108;2022-07-31T06:50:15;19.90;;;11.50;;
69912;SDS011;57198;52.082;5.108;2022-07-31T06:53:06;18.58;;;11.60;;
69912;SDS011;57198;52.082;5.108;2022-07-31T06:55:34;18.23;;;12.07;;
69912;SDS011;57198;52.082;5.108;2022-07-31T06:58:10;19.43;;;12.23;;
69912;SDS011;57198;52.082;5.108;2022-07-31T07:00:37;21.20;;;12.63;;
69912;SDS011;57198;52.082;5.108;2022-07-31T07:03:04;18.88;;;11.90;;
69912;SDS011;57198;52.082;5.108;2022-07-31T07:05:32;20.23;;;11.98;;
69912;SDS011;57198;52.082;5.108;2022-07-31T07:08:00;22.25;;;12.55;;
69912;SDS011;57198;52.082;5.108;2022-07-31T07:10:29;19.63;;;11.90;;
69912;SDS011;57198;52.082;5.108;2022-07-31T07:12:56;25.42;;;14.50;;
69912;SDS011;57198;52.082;5.108;2022-07-31T07:15:23;23.80;;;13.15;;
69912;SDS011;57198;52.082;5.108;2022-07-31T07:17:51;24.50;;;14.35;;
69912;SDS011;57198;52.082;5.108;2022-07-31T07:20:27;26.48;;;14.23;;
69912;SDS011;57198;52.082;5.108;2022-07-31T07:22:54;25.23;;;14.67;;
69912;SDS011;57198;52.082;5.108;2022-07-31T07:25:34;29.10;;;14.82;;
69912;SDS011;57198;52.082;5.108;2022-07-31T07:28:01;23.65;;;14.23;;
69912;SDS011;57198;52.082;5.108;2022-07-31T07:30:29;22.95;;;14.35;;
69912;SDS011;57198;52.082;5.108;2022-07-31T07:32:58;26.50;;;15.43;;
69912;SDS011;57198;52.082;5.108;2022-07-31T07:35:27;24.10;;;15.30;;
69912;SDS011;57198;52.082;5.108;2022-07-31T07:38:02;26.23;;;16.15;;
69912;SDS011;57198;52.082;5.108;2022-07-31T07:40:30;27.40;;;15.93;;
69912;SDS011;57198;52.082;5.108;2022-07-31T07:42:58;24.23;;;15.68;;
69912;SDS011;57198;52.082;5.108;2022-07-31T07:45:29;27.48;;;16.08;;
69912;SDS011;57198;52.082;5.108;2022-07-31T07:47:57;27.33;;;15.90;;
69912;SDS011;57198;52.082;5.108;2022-07-31T07:50:58;25.05;;;15.27;;
69912;SDS011;57198;52.082;5.108;2022-07-31T07:53:33;26.73;;;16.25;;
69912;SDS011;57198;52.082;5.108;2022-07-31T07:56:07;29.48;;;17.80;;
69912;SDS011;57198;52.082;5.108;2022-07-31T07:59:01;27.83;;;17.45;;
69912;SDS011;57198;52.082;5.108;2022-07-31T08:02:03;28.67;;;17.73;;
69912;SDS011;57198;52.082;5.108;2022-07-31T08:04:32;27.02;;;15.65;;
69912;SDS011;57198;52.082;5.108;2022-07-31T08:06:59;28.73;;;16.88;;
69912;SDS011;57198;52.082;5.108;2022-07-31T08:09:32;26.02;;;15.93;;
69912;SDS011;57198;52.082;5.108;2022-07-31T08:12:22;27.67;;;15.95;;
69912;SDS011;57198;52.082;5.108;2022-07-31T08:15:05;25.30;;;16.33;;
69912;SDS011;57198;52.082;5.108;2022-07-31T08:17:35;26.08;;;16.65;;
69912;SDS011;57198;52.082;5.108;2022-07-31T08:20:04;29.67;;;16.90;;
69912;SDS011;57198;52.082;5.108;2022-07-31T08:22:31;28.13;;;17.23;;
69912;SDS011;57198;52.082;5.108;2022-07-31T08:24:59;27.98;;;17.20;;
69912;SDS011;57198;52.082;5.108;2022-07-31T08:27:31;25.47;;;15.87;;
69912;SDS011;57198;52.082;5.108;2022-07-31T08:30:06;26.20;;;16.38;;
69912;SDS011;57198;52.082;5.108;2022-07-31T08:32:33;25.65;;;17.73;;
69912;SDS011;57198;52.082;5.108;2022-07-31T08:35:14;24.05;;;16.60;;
69912;SDS011;57198;52.082;5.108;2022-07-31T08:37:42;28.48;;;17.65;;
69912;SDS011;57198;52.082;5.108;2022-07-31T08:40:31;25.17;;;16.43;;
69912;SDS011;57198;52.082;5.108;2022-07-31T08:43:08;26.60;;;16.75;;
69912;SDS011;57198;52.082;5.108;2022-07-31T08:45:55;24.63;;;16.25;;
69912;SDS011;57198;52.082;5.108;2022-07-31T08:48:26;26.92;;;17.98;;
69912;SDS011;57198;52.082;5.108;2022-07-31T08:50:53;27.60;;;17.42;;
69912;SDS011;57198;52.082;5.108;2022-07-31T08:53:47;23.23;;;16.50;;
69912;SDS011;57198;52.082;5.108;2022-07-31T08:56:18;29.02;;;18.30;;
69912;SDS011;57198;52.082;5.108;2022-07-31T08:58:45;27.77;;;19.23;;
69912;SDS011;57198;52.082;5.108;2022-07-31T09:01:13;27.70;;;17.77;;
69912;SDS011;57198;52.082;5.108;2022-07-31T09:03:41;26.50;;;18.00;;
69912;SDS011;57198;52.082;5.108;2022-07-31T09:06:10;24.87;;;17.80;;
69912;SDS011;57198;52.082;5.108;2022-07-31T09:08:38;25.65;;;17.35;;
69912;SDS011;57198;52.082;5.108;2022-07-31T09:11:07;23.52;;;17.50;;
69912;SDS011;57198;52.082;5.108;2022-07-31T09:13:37;24.33;;;18.00;;
69912;SDS011;57198;52.082;5.108;2022-07-31T09:16:25;24.27;;;18.92;;
69912;SDS011;57198;52.082;5.108;2022-07-31T09:18:57;23.93;;;18.63;;
69912;SDS011;57198;52.082;5.108;2022-07-31T09:21:25;26.48;;;18.65;;
69912;SDS011;57198;52.082;5.108;2022-07-31T09:23:52;25.38;;;18.15;;
69912;SDS011;57198;52.082;5.108;2022-07-31T09:26:30;25.02;;;18.00;;
69912;SDS011;57198;52.082;5.108;2022-07-31T09:28:58;24.70;;;17.83;;
69912;SDS011;57198;52.082;5.108;2022-07-31T09:31:36;25.53;;;17.93;;
69912;SDS011;57198;52.082;5.108;2022-07-31T09:34:29;25.45;;;18.52;;
69912;SDS011;57198;52.082;5.108;2022-07-31T09:40:13;27.27;;;18.98;;
69912;SDS011;57198;52.082;5.108;2022-07-31T09:43:25;28.60;;;18.70;;
69912;SDS011;57198;52.082;5.108;2022-07-31T09:45:58;26.23;;;18.00;;
69912;SDS011;57198;52.082;5.108;2022-07-31T09:48:26;23.38;;;18.13;;
69912;SDS011;57198;52.082;5.108;2022-07-31T09:51:04;25.95;;;18.58;;
69912;SDS011;57198;52.082;5.108;2022-07-31T09:53:46;27.05;;;18.75;;
69912;SDS011;57198;52.082;5.108;2022-07-31T09:56:40;25.02;;;17.25;;
69912;SDS011;57198;52.082;5.108;2022-07-31T09:59:09;22.23;;;18.03;;
69912;SDS011;57198;52.082;5.108;2022-07-31T10:01:37;23.42;;;17.60;;
69912;SDS011;57198;52.082;5.108;2022-07-31T10:04:06;27.17;;;18.83;;
69912;SDS011;57198;52.082;5.108;2022-07-31T10:06:34;25.75;;;18.33;;
69912;SDS011;57198;52.082;5.108;2022-07-31T10:09:03;23.40;;;18.08;;
69912;SDS011;57198;52.082;5.108;2022-07-31T10:12:06;23.27;;;18.80;;
69912;SDS011;57198;52.082;5.108;2022-07-31T10:14:42;26.33;;;17.73;;
69912;SDS011;57198;52.082;5.108;2022-07-31T10:17:11;24.92;;;18.50;;
69912;SDS011;57198;52.082;5.108;2022-07-31T10:20:00;23.40;;;18.48;;
69912;SDS011;57198;52.082;5.108;2022-07-31T10:22:58;24.27;;;18.70;;
69912;SDS011;57198;52.082;5.108;2022-07-31T10:25:30;25.50;;;19.53;;
69912;SDS011;57198;52.082;5.108;2022-07-31T10:27:57;25.50;;;18.65;;
69912;SDS011;57198;52.082;5.108;2022-07-31T10:30:25;18.88;;;16.70;;
69912;SDS011;57198;52.082;5.108;2022-07-31T10:32:56;22.20;;;18.02;;
69912;SDS011;57198;52.082;5.108;2022-07-31T10:35:24;25.52;;;18.02;;
69912;SDS011;57198;52.082;5.108;2022-07-31T10:38:11;19.00;;;16.33;;
69912;SDS011;57198;52.082;5.108;2022-07-31T10:41:00;20.27;;;16.02;;
69912;SDS011;57198;52.082;5.108;2022-07-31T10:43:38;18.85;;;16.63;;
69912;SDS011;57198;52.082;5.108;2022-07-31T10:46:13;17.90;;;15.82;;
69912;SDS011;57198;52.082;5.108;2022-07-31T10:48:50;21.85;;;17.42;;
69912;SDS011;57198;52.082;5.108;2022-07-31T10:51:47;20.20;;;16.73;;
69912;SDS011;57198;52.082;5.108;2022-07-31T10:57:28;20.35;;;16.60;;
69912;SDS011;57198;52.082;5.108;2022-07-31T11:00:19;21.25;;;17.17;;
69912;SDS011;57198;52.082;5.108;2022-07-31T11:03:15;22.05;;;16.90;;
69912;SDS011;57198;52.082;5.108;2022-07-31T11:06:03;20.23;;;17.20;;
69912;SDS011;57198;52.082;5.108;2022-07-31T11:08:49;19.30;;;16.38;;
69912;SDS011;57198;52.082;5.108;2022-07-31T11:11:36;19.40;;;16.77;;
69912;SDS011;57198;52.082;5.108;2022-07-31T11:14:35;20.25;;;15.95;;
69912;SDS011;57198;52.082;5.108;2022-07-31T11:17:29;18.05;;;16.08;;
69912;SDS011;57198;52.082;5.108;2022-07-31T11:20:37;19.13;;;15.20;;
69912;SDS011;57198;52.082;5.108;2022-07-31T11:23:05;18.92;;;14.48;;
69912;SDS011;57198;52.082;5.108;2022-07-31T11:25:36;16.75;;;14.88;;
69912;SDS011;57198;52.082;5.108;2022-07-31T11:28:13;17.88;;;14.93;;
69912;SDS011;57198;52.082;5.108;2022-07-31T11:31:01;17.20;;;13.98;;
69912;SDS011;57198;52.082;5.108;2022-07-31T11:33:41;15.50;;;13.97;;
69912;SDS011;57198;52.082;5.108;2022-07-31T11:36:13;16.02;;;13.13;;
69912;SDS011;57198;52.082;5.108;2022-07-31T11:38:41;19.17;;;13.30;;
69912;SDS011;57198;52.082;5.108;2022-07-31T11:41:12;14.32;;;12.77;;
69912;SDS011;57198;52.082;5.108;2022-07-31T11:43:43;16.65;;;12.35;;
69912;SDS011;57198;52.082;5.108;2022-07-31T11:46:11;17.87;;;11.07;;
69912;SDS011;57198;52.082;5.108;2022-07-31T11:48:39;16.40;;;11.43;;
69912;SDS011;57198;52.082;5.108;2022-07-31T11:51:15;14.90;;;11.63;;
69912;SDS011;57198;52.082;5.108;2022-07-31T11:53:43;15.90;;;10.77;;
69912;SDS011;57198;52.082;5.108;2022-07-31T11:56:18;12.88;;;10.32;;
69912;SDS011;57198;52.082;5.108;2022-07-31T11:58:49;13.53;;;9.90;;
69912;SDS011;57198;52.082;5.108;2022-07-31T12:01:16;17.30;;;10.60;;
69912;SDS011;57198;52.082;5.108;2022-07-31T12:03:44;14.57;;;10.30;;
69912;SDS011;57198;52.082;5.108;2022-07-31T12:06:16;15.57;;;10.30;;
69912;SDS011;57198;52.082;5.108;2022-07-31T12:08:45;14.10;;;10.02;;
69912;SDS011;57198;52.082;5.108;2022-07-31T12:11:12;15.57;;;10.40;;
69912;SDS011;57198;52.082;5.108;2022-07-31T12:13:43;15.10;;;10.25;;
69912;SDS011;57198;52.082;5.108;2022-07-31T12:16:10;13.35;;;9.88;;
69912;SDS011;57198;52.082;5.108;2022-07-31T12:21:14;12.82;;;9.43;;
69912;SDS011;57198;52.082;5.108;2022-07-31T12:26:10;10.32;;;8.30;;
69912;SDS011;57198;52.082;5.108;2022-07-31T12:28:38;10.52;;;7.78;;
69912;SDS011;57198;52.082;5.108;2022-07-31T12:31:06;11.55;;;7.85;;
69912;SDS011;57198;52.082;5.108;2022-07-31T12:33:40;11.50;;;7.03;;
69912;SDS011;57198;52.082;5.108;2022-07-31T12:36:14;9.07;;;5.93;;
69912;SDS011;57198;52.082;5.108;2022-07-31T12:38:43;8.90;;;6.00;;
69912;SDS011;57198;52.082;5.108;2022-07-31T12:41:14;5.93;;;5.30;;
69912;SDS011;57198;52.082;5.108;2022-07-31T12:43:42;9.38;;;5.80;;
69912;SDS011;57198;52.082;5.108;2022-07-31T12:46:17;13.27;;;5.80;;
69912;SDS011;57198;52.082;5.108;2022-07-31T12:48:45;11.03;;;5.23;;
69912;SDS011;57198;52.082;5.108;2022-07-31T12:51:12;10.82;;;5.28;;
69912;SDS011;57198;52.082;5.108;2022-07-31T12:53:39;6.15;;;3.63;;
69912;SDS011;57198;52.082;5.108;2022-07-31T12:56:10;7.38;;;3.60;;
69912;SDS011;57198;52.082;5.108;2022-07-31T12:58:38;8.10;;;3.70;;
69912;SDS011;57198;52.082;5.108;2022-07-31T13:01:05;5.20;;;3.20;;
69912;SDS011;57198;52.082;5.108;2022-07-31T13:03:33;6.70;;;3.50;;
69912;SDS011;57198;52.082;5.108;2022-07-31T13:06:12;5.93;;;3.20;;
69912;SDS011;57198;52.082;5.108;2022-07-31T13:08:39;6.10;;;3.28;;
69912;SDS011;57198;52.082;5.108;2022-07-31T13:11:09;4.68;;;3.58;;
69912;SDS011;57198;52.082;5.108;2022-07-31T13:13:36;6.73;;;3.90;;
69912;SDS011;57198;52.082;5.108;2022-07-31T13:16:04;8.88;;;3.47;;
69912;SDS011;57198;52.082;5.108;2022-07-31T13:18:31;5.43;;;3.75;;
69912;SDS011;57198;52.082;5.108;2022-07-31T13:21:00;9.02;;;4.30;;
69912;SDS011;57198;52.082;5.108;2022-07-31T13:23:28;7.80;;;3.92;;
69912;SDS011;57198;52.082;5.108;2022-07-31T13:25:55;6.53;;;3.43;;
69912;SDS011;57198;52.082;5.108;2022-07-31T13:28:24;5.63;;;3.58;;
69912;SDS011;57198;52.082;5.108;2022-07-31T13:30:51;5.45;;;3.65;;
69912;SDS011;57198;52.082;5.108;2022-07-31T13:33:20;7.30;;;3.38;;
69912;SDS011;57198;52.082;5.108;2022-07-31T13:35:48;6.22;;;3.10;;
69912;SDS011;57198;52.082;5.108;2022-07-31T13:38:15;4.83;;;2.80;;
69912;SDS011;57198;52.082;5.108;2022-07-31T13:40:42;6.45;;;3.38;;
69912;SDS011;57198;52.082;5.108;2022-07-31T13:43:28;3.92;;;3.13;;
69912;SDS011;57198;52.082;5.108;2022-07-31T13:45:55;5.68;;;3.50;;
69912;SDS011;57198;52.082;5.108;2022-07-31T13:48:23;6.13;;;2.90;;
69912;SDS011;57198;52.082;5.108;2022-07-31T13:50:50;10.37;;;3.63;;
69912;SDS011;57198;52.082;5.108;2022-07-31T13:53:17;8.82;;;3.75;;
69912;SDS011;57198;52.082;5.108;2022-07-31T13:55:45;3.35;;;2.70;;
69912;SDS011;57198;52.082;5.108;2022-07-31T13:58:15;5.97;;;2.55;;
69912;SDS011;57198;52.082;5.108;2022-07-31T14:00:43;5.80;;;3.28;;
69912;SDS011;57198;52.082;5.108;2022-07-31T14:03:10;4.80;;;2.70;;
69912;SDS011;57198;52.082;5.108;2022-07-31T14:05:42;9.52;;;3.42;;
69912;SDS011;57198;52.082;5.108;2022-07-31T14:08:09;5.97;;;3.08;;
69912;SDS011;57198;52.082;5.108;2022-07-31T14:10:56;6.20;;;2.70;;
69912;SDS011;57198;52.082;5.108;2022-07-31T14:13:24;7.28;;;3.20;;
69912;SDS011;57198;52.082;5.108;2022-07-31T14:15:52;4.60;;;2.97;;
69912;SDS011;57198;52.082;5.108;2022-07-31T14:18:19;4.60;;;3.00;;
69912;SDS011;57198;52.082;5.108;2022-07-31T14:20:48;5.57;;;2.97;;
69912;SDS011;57198;52.082;5.108;2022-07-31T14:23:16;5.03;;;3.38;;
69912;SDS011;57198;52.082;5.108;2022-07-31T14:25:43;4.13;;;2.80;;
69912;SDS011;57198;52.082;5.108;2022-07-31T14:28:10;5.30;;;3.23;;
69912;SDS011;57198;52.082;5.108;2022-07-31T14:30:38;5.70;;;3.28;;
69912;SDS011;57198;52.082;5.108;2022-07-31T14:33:12;5.05;;;3.35;;
69912;SDS011;57198;52.082;5.108;2022-07-31T14:35:39;6.88;;;3.58;;
69912;SDS011;57198;52.082;5.108;2022-07-31T14:38:07;5.15;;;3.30;;
69912;SDS011;57198;52.082;5.108;2022-07-31T14:40:35;4.50;;;3.33;;
69912;SDS011;57198;52.082;5.108;2022-07-31T14:43:02;6.10;;;3.72;;
69912;SDS011;57198;52.082;5.108;2022-07-31T14:45:29;6.75;;;4.00;;
69912;SDS011;57198;52.082;5.108;2022-07-31T14:48:04;5.50;;;3.80;;
69912;SDS011;57198;52.082;5.108;2022-07-31T14:50:32;7.85;;;4.10;;
69912;SDS011;57198;52.082;5.108;2022-07-31T14:52:59;6.17;;;4.40;;
69912;SDS011;57198;52.082;5.108;2022-07-31T14:55:26;6.63;;;4.90;;
69912;SDS011;57198;52.082;5.108;2022-07-31T14:57:54;4.28;;;3.85;;
69912;SDS011;57198;52.082;5.108;2022-07-31T15:00:21;5.30;;;4.78;;
69912;SDS011;57198;52.082;5.108;2022-07-31T15:02:49;5.20;;;4.53;;
69912;SDS011;57198;52.082;5.108;2022-07-31T15:05:16;8.50;;;4.80;;
69912;SDS011;57198;52.082;5.108;2022-07-31T15:08:03;9.15;;;5.30;;
69912;SDS011;57198;52.082;5.108;2022-07-31T15:10:31;6.00;;;5.32;;
69912;SDS011;57198;52.082;5.108;2022-07-31T15:12:58;7.25;;;5.72;;
69912;SDS011;57198;52.082;5.108;2022-07-31T15:15:26;7.03;;;5.50;;
69912;SDS011;57198;52.082;5.108;2022-07-31T15:17:54;7.13;;;5.57;;
69912;SDS011;57198;52.082;5.108;2022-07-31T15:20:21;8.70;;;5.72;;
69912;SDS011;57198;52.082;5.108;2022-07-31T15:22:58;6.97;;;5.70;;
69912;SDS011;57198;52.082;5.108;2022-07-31T15:25:25;8.68;;;5.72;;
69912;SDS011;57198;52.082;5.108;2022-07-31T15:27:52;9.68;;;7.18;;